sensor_id;sensor_type;location;lat;lon;timestamp;P1;durP1;ratioP1;P2;durP2;ratioP2
73675;SDS011;61975;48.660;10.164;2022-09-30T00:01:08;35.58;;;7.82;;
73675;SDS011;61975;48.660;10.164;2022-09-30T00:03:33;48.20;;;8.55;;
73675;SDS011;61975;48.660;10.164;2022-09-30T00:06:01;64.70;;;8.55;;
73675;SDS011;61975;48.660;10.164;2022-09-30T00:08:29;24.83;;;7.10;;
73675;SDS011;61975;48.660;10.164;2022-09-30T00:11:01;27.23;;;7.10;;
73675;SDS011;61975;48.660;10.164;2022-09-30T00:13:35;25.45;;;7.20;;
73675;SDS011;61975;48.660;10.164;2022-09-30T00:16:03;32.92;;;7.40;;
73675;SDS011;61975;48.660;10.164;2022-09-30T00:18:29;20.53;;;6.93;;
73675;SDS011;61975;48.660;10.164;2022-09-30T00:20:54;31.75;;;7.85;;
73675;SDS011;61975;48.660;10.164;2022-09-30T00:23:21;28.15;;;7.32;;
73675;SDS011;61975;48.660;10.164;2022-09-30T00:25:48;27.98;;;7.32;;
73675;SDS011;61975;48.660;10.164;2022-09-30T00:28:14;25.55;;;7.32;;
73675;SDS011;61975;48.660;10.164;2022-09-30T00:30:40;21.90;;;7.23;;
73675;SDS011;61975;48.660;10.164;2022-09-30T00:33:05;32.08;;;7.15;;
73675;SDS011;61975;48.660;10.164;2022-09-30T00:35:31;30.33;;;7.47;;
73675;SDS011;61975;48.660;10.164;2022-09-30T00:37:56;25.80;;;6.83;;
73675;SDS011;61975;48.660;10.164;2022-09-30T00:40:24;28.13;;;7.18;;
73675;SDS011;61975;48.660;10.164;2022-09-30T00:42:50;23.15;;;6.53;;
73675;SDS011;61975;48.660;10.164;2022-09-30T00:45:16;23.60;;;6.33;;
73675;SDS011;61975;48.660;10.164;2022-09-30T00:47:47;18.52;;;6.32;;
73675;SDS011;61975;48.660;10.164;2022-09-30T00:52:45;21.40;;;6.43;;
73675;SDS011;61975;48.660;10.164;2022-09-30T00:55:20;31.23;;;6.70;;
73675;SDS011;61975;48.660;10.164;2022-09-30T00:57:51;20.25;;;6.78;;
73675;SDS011;61975;48.660;10.164;2022-09-30T01:00:18;27.95;;;6.93;;
73675;SDS011;61975;48.660;10.164;2022-09-30T01:02:44;14.37;;;6.40;;
73675;SDS011;61975;48.660;10.164;2022-09-30T01:05:11;15.85;;;5.95;;
73675;SDS011;61975;48.660;10.164;2022-09-30T01:07:37;19.47;;;6.50;;
73675;SDS011;61975;48.660;10.164;2022-09-30T01:10:03;20.50;;;6.60;;
73675;SDS011;61975;48.660;10.164;2022-09-30T01:12:29;22.65;;;7.10;;
73675;SDS011;61975;48.660;10.164;2022-09-30T01:14:54;18.70;;;6.20;;
73675;SDS011;61975;48.660;10.164;2022-09-30T01:25:36;22.80;;;6.93;;
73675;SDS011;61975;48.660;10.164;2022-09-30T01:41:52;27.60;;;5.78;;
73675;SDS011;61975;48.660;10.164;2022-09-30T01:49:54;17.30;;;5.43;;
73675;SDS011;61975;48.660;10.164;2022-09-30T01:55:05;14.27;;;4.72;;
73675;SDS011;61975;48.660;10.164;2022-09-30T01:58:23;12.07;;;5.00;;
73675;SDS011;61975;48.660;10.164;2022-09-30T02:00:37;15.88;;;4.72;;
73675;SDS011;61975;48.660;10.164;2022-09-30T02:03:21;15.07;;;5.32;;
73675;SDS011;61975;48.660;10.164;2022-09-30T02:06:01;25.50;;;5.00;;
73675;SDS011;61975;48.660;10.164;2022-09-30T02:08:34;15.15;;;5.55;;
73675;SDS011;61975;48.660;10.164;2022-09-30T02:11:13;13.63;;;5.03;;
73675;SDS011;61975;48.660;10.164;2022-09-30T02:16:31;45.83;;;5.70;;
73675;SDS011;61975;48.660;10.164;2022-09-30T02:19:09;15.77;;;4.38;;
73675;SDS011;61975;48.660;10.164;2022-09-30T02:21:57;23.48;;;4.65;;
73675;SDS011;61975;48.660;10.164;2022-09-30T02:24:26;22.38;;;5.13;;
73675;SDS011;61975;48.660;10.164;2022-09-30T02:26:56;41.90;;;6.57;;
73675;SDS011;61975;48.660;10.164;2022-09-30T02:29:29;22.35;;;5.00;;
73675;SDS011;61975;48.660;10.164;2022-09-30T02:32:01;15.35;;;4.35;;
73675;SDS011;61975;48.660;10.164;2022-09-30T02:34:33;33.20;;;4.88;;
73675;SDS011;61975;48.660;10.164;2022-09-30T02:37:38;43.65;;;5.40;;
73675;SDS011;61975;48.660;10.164;2022-09-30T02:40:06;12.02;;;4.05;;
73675;SDS011;61975;48.660;10.164;2022-09-30T02:42:34;12.50;;;4.07;;
73675;SDS011;61975;48.660;10.164;2022-09-30T02:45:04;16.00;;;3.75;;
73675;SDS011;61975;48.660;10.164;2022-09-30T02:58:17;9.55;;;3.55;;
73675;SDS011;61975;48.660;10.164;2022-09-30T03:00:45;8.80;;;3.42;;
73675;SDS011;61975;48.660;10.164;2022-09-30T03:03:14;7.97;;;3.37;;
73675;SDS011;61975;48.660;10.164;2022-09-30T03:05:43;52.25;;;5.13;;
73675;SDS011;61975;48.660;10.164;2022-09-30T03:08:09;15.18;;;4.00;;
73675;SDS011;61975;48.660;10.164;2022-09-30T03:10:35;12.33;;;3.93;;
73675;SDS011;61975;48.660;10.164;2022-09-30T03:13:16;12.48;;;4.20;;
73675;SDS011;61975;48.660;10.164;2022-09-30T03:15:52;16.35;;;3.75;;
73675;SDS011;61975;48.660;10.164;2022-09-30T03:24:12;17.03;;;4.10;;
73675;SDS011;61975;48.660;10.164;2022-09-30T03:29:19;42.03;;;5.40;;
73675;SDS011;61975;48.660;10.164;2022-09-30T03:31:57;83.60;;;6.13;;
73675;SDS011;61975;48.660;10.164;2022-09-30T03:34:28;154.85;;;9.57;;
73675;SDS011;61975;48.660;10.164;2022-09-30T03:37:03;25.13;;;4.37;;
73675;SDS011;61975;48.660;10.164;2022-09-30T03:39:58;70.88;;;6.28;;
73675;SDS011;61975;48.660;10.164;2022-09-30T03:44:59;95.55;;;6.28;;
73675;SDS011;61975;48.660;10.164;2022-09-30T03:47:27;21.33;;;3.90;;
73675;SDS011;61975;48.660;10.164;2022-09-30T03:49:57;30.93;;;4.60;;
73675;SDS011;61975;48.660;10.164;2022-09-30T03:52:26;31.33;;;4.60;;
73675;SDS011;61975;48.660;10.164;2022-09-30T03:54:59;44.80;;;6.15;;
73675;SDS011;61975;48.660;10.164;2022-09-30T03:57:29;15.68;;;4.20;;
73675;SDS011;61975;48.660;10.164;2022-09-30T03:59:55;16.30;;;4.40;;
73675;SDS011;61975;48.660;10.164;2022-09-30T04:02:21;22.60;;;4.03;;
73675;SDS011;61975;48.660;10.164;2022-09-30T04:04:47;37.40;;;4.57;;
73675;SDS011;61975;48.660;10.164;2022-09-30T04:07:12;21.70;;;4.50;;
73675;SDS011;61975;48.660;10.164;2022-09-30T04:09:38;18.33;;;4.13;;
73675;SDS011;61975;48.660;10.164;2022-09-30T04:12:04;11.43;;;3.90;;
73675;SDS011;61975;48.660;10.164;2022-09-30T04:14:30;25.33;;;4.68;;
73675;SDS011;61975;48.660;10.164;2022-09-30T04:16:56;14.23;;;4.00;;
73675;SDS011;61975;48.660;10.164;2022-09-30T04:19:22;29.65;;;4.80;;
73675;SDS011;61975;48.660;10.164;2022-09-30T04:21:49;64.55;;;5.65;;
73675;SDS011;61975;48.660;10.164;2022-09-30T04:24:15;31.87;;;5.10;;
73675;SDS011;61975;48.660;10.164;2022-09-30T04:26:41;22.92;;;4.60;;
73675;SDS011;61975;48.660;10.164;2022-09-30T04:29:06;13.07;;;4.53;;
73675;SDS011;61975;48.660;10.164;2022-09-30T04:31:32;19.70;;;4.60;;
73675;SDS011;61975;48.660;10.164;2022-09-30T04:33:57;23.80;;;4.53;;
73675;SDS011;61975;48.660;10.164;2022-09-30T04:36:22;32.37;;;4.40;;
73675;SDS011;61975;48.660;10.164;2022-09-30T04:38:48;23.48;;;3.95;;
73675;SDS011;61975;48.660;10.164;2022-09-30T04:41:14;17.87;;;3.93;;
73675;SDS011;61975;48.660;10.164;2022-09-30T04:43:42;16.05;;;3.72;;
73675;SDS011;61975;48.660;10.164;2022-09-30T04:46:15;19.17;;;3.85;;
73675;SDS011;61975;48.660;10.164;2022-09-30T04:48:41;24.50;;;4.00;;
73675;SDS011;61975;48.660;10.164;2022-09-30T04:51:10;19.00;;;3.58;;
73675;SDS011;61975;48.660;10.164;2022-09-30T04:53:37;25.80;;;3.75;;
73675;SDS011;61975;48.660;10.164;2022-09-30T04:56:03;15.68;;;3.13;;
73675;SDS011;61975;48.660;10.164;2022-09-30T04:58:28;19.43;;;3.30;;
73675;SDS011;61975;48.660;10.164;2022-09-30T05:01:00;23.45;;;3.75;;
73675;SDS011;61975;48.660;10.164;2022-09-30T05:03:26;14.60;;;3.35;;
73675;SDS011;61975;48.660;10.164;2022-09-30T05:05:51;20.40;;;3.30;;
73675;SDS011;61975;48.660;10.164;2022-09-30T05:08:17;26.13;;;3.23;;
73675;SDS011;61975;48.660;10.164;2022-09-30T05:10:42;10.13;;;2.33;;
73675;SDS011;61975;48.660;10.164;2022-09-30T05:13:07;18.40;;;2.80;;
73675;SDS011;61975;48.660;10.164;2022-09-30T05:15:33;13.73;;;2.83;;
73675;SDS011;61975;48.660;10.164;2022-09-30T05:17:59;9.67;;;2.63;;
73675;SDS011;61975;48.660;10.164;2022-09-30T05:20:24;16.50;;;2.80;;
73675;SDS011;61975;48.660;10.164;2022-09-30T05:22:53;14.70;;;2.57;;
73675;SDS011;61975;48.660;10.164;2022-09-30T05:25:20;18.42;;;2.85;;
73675;SDS011;61975;48.660;10.164;2022-09-30T05:27:49;14.88;;;2.53;;
73675;SDS011;61975;48.660;10.164;2022-09-30T05:30:15;26.52;;;2.75;;
73675;SDS011;61975;48.660;10.164;2022-09-30T05:32:40;9.77;;;2.20;;
73675;SDS011;61975;48.660;10.164;2022-09-30T05:35:06;7.23;;;1.87;;
73675;SDS011;61975;48.660;10.164;2022-09-30T05:37:32;10.23;;;2.35;;
73675;SDS011;61975;48.660;10.164;2022-09-30T05:39:58;9.68;;;2.63;;
73675;SDS011;61975;48.660;10.164;2022-09-30T05:42:25;22.40;;;4.13;;
73675;SDS011;61975;48.660;10.164;2022-09-30T05:44:50;17.58;;;3.28;;
73675;SDS011;61975;48.660;10.164;2022-09-30T05:47:16;15.33;;;3.53;;
73675;SDS011;61975;48.660;10.164;2022-09-30T05:49:41;28.40;;;5.03;;
73675;SDS011;61975;48.660;10.164;2022-09-30T05:52:07;14.63;;;3.50;;
73675;SDS011;61975;48.660;10.164;2022-09-30T05:54:32;28.83;;;3.97;;
73675;SDS011;61975;48.660;10.164;2022-09-30T05:56:57;20.93;;;3.20;;
73675;SDS011;61975;48.660;10.164;2022-09-30T05:59:23;14.70;;;2.83;;
73675;SDS011;61975;48.660;10.164;2022-09-30T06:01:49;10.93;;;2.80;;
73675;SDS011;61975;48.660;10.164;2022-09-30T06:04:14;40.00;;;4.43;;
73675;SDS011;61975;48.660;10.164;2022-09-30T06:06:39;31.47;;;5.00;;
73675;SDS011;61975;48.660;10.164;2022-09-30T06:09:05;44.77;;;3.93;;
73675;SDS011;61975;48.660;10.164;2022-09-30T06:11:30;36.77;;;4.20;;
73675;SDS011;61975;48.660;10.164;2022-09-30T06:13:56;25.42;;;4.20;;
73675;SDS011;61975;48.660;10.164;2022-09-30T06:16:21;53.60;;;4.43;;
73675;SDS011;61975;48.660;10.164;2022-09-30T06:18:47;40.83;;;4.38;;
73675;SDS011;61975;48.660;10.164;2022-09-30T06:21:14;31.45;;;4.35;;
73675;SDS011;61975;48.660;10.164;2022-09-30T06:23:41;26.13;;;4.20;;
73675;SDS011;61975;48.660;10.164;2022-09-30T06:26:08;20.27;;;3.80;;
73675;SDS011;61975;48.660;10.164;2022-09-30T06:28:35;22.75;;;3.85;;
73675;SDS011;61975;48.660;10.164;2022-09-30T06:31:02;18.55;;;4.43;;
73675;SDS011;61975;48.660;10.164;2022-09-30T06:33:28;28.02;;;4.15;;
73675;SDS011;61975;48.660;10.164;2022-09-30T06:35:54;41.33;;;5.10;;
73675;SDS011;61975;48.660;10.164;2022-09-30T06:38:19;26.67;;;5.00;;
73675;SDS011;61975;48.660;10.164;2022-09-30T06:40:47;24.88;;;3.85;;
73675;SDS011;61975;48.660;10.164;2022-09-30T06:43:15;19.08;;;4.20;;
73675;SDS011;61975;48.660;10.164;2022-09-30T06:45:41;18.48;;;4.47;;
73675;SDS011;61975;48.660;10.164;2022-09-30T06:48:06;31.30;;;4.80;;
73675;SDS011;61975;48.660;10.164;2022-09-30T06:50:33;27.95;;;4.30;;
73675;SDS011;61975;48.660;10.164;2022-09-30T06:53:00;30.27;;;4.68;;
73675;SDS011;61975;48.660;10.164;2022-09-30T06:55:27;43.05;;;5.63;;
73675;SDS011;61975;48.660;10.164;2022-09-30T06:57:53;34.07;;;4.87;;
73675;SDS011;61975;48.660;10.164;2022-09-30T07:00:20;29.20;;;4.30;;
73675;SDS011;61975;48.660;10.164;2022-09-30T07:02:46;29.55;;;4.72;;
73675;SDS011;61975;48.660;10.164;2022-09-30T07:05:13;26.85;;;4.85;;
73675;SDS011;61975;48.660;10.164;2022-09-30T07:07:39;21.98;;;4.82;;
73675;SDS011;61975;48.660;10.164;2022-09-30T07:10:06;34.08;;;5.20;;
73675;SDS011;61975;48.660;10.164;2022-09-30T07:12:32;33.90;;;5.35;;
73675;SDS011;61975;48.660;10.164;2022-09-30T07:14:58;19.80;;;5.32;;
73675;SDS011;61975;48.660;10.164;2022-09-30T07:17:24;16.87;;;5.00;;
73675;SDS011;61975;48.660;10.164;2022-09-30T07:19:50;33.97;;;5.50;;
73675;SDS011;61975;48.660;10.164;2022-09-30T07:22:16;29.88;;;5.38;;
73675;SDS011;61975;48.660;10.164;2022-09-30T07:24:51;20.23;;;5.63;;
73675;SDS011;61975;48.660;10.164;2022-09-30T07:27:17;16.27;;;5.22;;
73675;SDS011;61975;48.660;10.164;2022-09-30T07:29:43;15.65;;;5.22;;
73675;SDS011;61975;48.660;10.164;2022-09-30T07:32:09;19.05;;;4.95;;
73675;SDS011;61975;48.660;10.164;2022-09-30T07:34:36;21.35;;;5.70;;
73675;SDS011;61975;48.660;10.164;2022-09-30T07:37:03;38.97;;;5.40;;
73675;SDS011;61975;48.660;10.164;2022-09-30T07:39:29;25.80;;;5.72;;
73675;SDS011;61975;48.660;10.164;2022-09-30T07:41:55;32.10;;;5.95;;
73675;SDS011;61975;48.660;10.164;2022-09-30T07:44:21;29.33;;;5.95;;
73675;SDS011;61975;48.660;10.164;2022-09-30T07:46:49;21.65;;;6.03;;
73675;SDS011;61975;48.660;10.164;2022-09-30T07:49:15;26.73;;;5.43;;
73675;SDS011;61975;48.660;10.164;2022-09-30T07:51:48;19.30;;;6.10;;
73675;SDS011;61975;48.660;10.164;2022-09-30T07:54:15;22.08;;;5.10;;
73675;SDS011;61975;48.660;10.164;2022-09-30T07:56:43;23.33;;;5.68;;
73675;SDS011;61975;48.660;10.164;2022-09-30T07:59:10;19.53;;;5.80;;
73675;SDS011;61975;48.660;10.164;2022-09-30T08:01:36;15.73;;;5.65;;
73675;SDS011;61975;48.660;10.164;2022-09-30T08:04:03;14.23;;;5.30;;
73675;SDS011;61975;48.660;10.164;2022-09-30T08:06:30;15.30;;;5.05;;
73675;SDS011;61975;48.660;10.164;2022-09-30T08:08:57;14.82;;;5.63;;
73675;SDS011;61975;48.660;10.164;2022-09-30T08:11:23;16.60;;;5.72;;
73675;SDS011;61975;48.660;10.164;2022-09-30T08:13:53;15.90;;;5.78;;
73675;SDS011;61975;48.660;10.164;2022-09-30T08:16:20;20.63;;;6.10;;
73675;SDS011;61975;48.660;10.164;2022-09-30T08:18:46;17.45;;;6.32;;
73675;SDS011;61975;48.660;10.164;2022-09-30T08:21:12;20.52;;;5.65;;
73675;SDS011;61975;48.660;10.164;2022-09-30T08:23:38;21.80;;;6.60;;
73675;SDS011;61975;48.660;10.164;2022-09-30T08:26:07;19.02;;;6.22;;
73675;SDS011;61975;48.660;10.164;2022-09-30T08:28:35;18.70;;;6.17;;
73675;SDS011;61975;48.660;10.164;2022-09-30T08:31:06;19.02;;;5.88;;
73675;SDS011;61975;48.660;10.164;2022-09-30T08:33:33;23.00;;;6.28;;
73675;SDS011;61975;48.660;10.164;2022-09-30T08:36:03;17.87;;;6.47;;
73675;SDS011;61975;48.660;10.164;2022-09-30T08:38:29;16.35;;;6.38;;
73675;SDS011;61975;48.660;10.164;2022-09-30T08:49:55;16.45;;;6.50;;
73675;SDS011;61975;48.660;10.164;2022-09-30T08:52:49;17.73;;;6.40;;
73675;SDS011;61975;48.660;10.164;2022-09-30T08:55:25;15.85;;;6.90;;
73675;SDS011;61975;48.660;10.164;2022-09-30T08:58:15;18.83;;;6.67;;
73675;SDS011;61975;48.660;10.164;2022-09-30T09:00:44;17.42;;;6.85;;
73675;SDS011;61975;48.660;10.164;2022-09-30T09:03:10;15.60;;;6.28;;
73675;SDS011;61975;48.660;10.164;2022-09-30T09:06:13;19.85;;;7.20;;
73675;SDS011;61975;48.660;10.164;2022-09-30T09:14:00;19.17;;;7.50;;
73675;SDS011;61975;48.660;10.164;2022-09-30T09:16:44;18.55;;;7.25;;
73675;SDS011;61975;48.660;10.164;2022-09-30T09:19:37;19.95;;;7.70;;
73675;SDS011;61975;48.660;10.164;2022-09-30T09:22:07;18.03;;;7.17;;
73675;SDS011;61975;48.660;10.164;2022-09-30T09:27:11;16.33;;;7.45;;
73675;SDS011;61975;48.660;10.164;2022-09-30T09:29:44;18.90;;;7.63;;
73675;SDS011;61975;48.660;10.164;2022-09-30T09:32:23;16.83;;;6.68;;
73675;SDS011;61975;48.660;10.164;2022-09-30T09:34:51;19.30;;;7.00;;
73675;SDS011;61975;48.660;10.164;2022-09-30T09:43:08;17.25;;;7.63;;
73675;SDS011;61975;48.660;10.164;2022-09-30T09:45:47;16.58;;;7.72;;
73675;SDS011;61975;48.660;10.164;2022-09-30T09:48:29;18.00;;;7.67;;
73675;SDS011;61975;48.660;10.164;2022-09-30T09:51:05;15.48;;;6.95;;
73675;SDS011;61975;48.660;10.164;2022-09-30T09:56:09;15.43;;;7.07;;
73675;SDS011;61975;48.660;10.164;2022-09-30T09:59:02;17.40;;;7.93;;
73675;SDS011;61975;48.660;10.164;2022-09-30T10:01:33;16.57;;;7.33;;
73675;SDS011;61975;48.660;10.164;2022-09-30T10:06:47;17.48;;;7.68;;
73675;SDS011;61975;48.660;10.164;2022-09-30T10:09:26;15.48;;;7.60;;
73675;SDS011;61975;48.660;10.164;2022-09-30T10:14:29;16.97;;;8.33;;
73675;SDS011;61975;48.660;10.164;2022-09-30T10:16:59;16.10;;;7.88;;
73675;SDS011;61975;48.660;10.164;2022-09-30T10:19:26;14.95;;;7.25;;
73675;SDS011;61975;48.660;10.164;2022-09-30T10:24:34;16.02;;;7.57;;
73675;SDS011;61975;48.660;10.164;2022-09-30T10:27:01;15.57;;;8.07;;
73675;SDS011;61975;48.660;10.164;2022-09-30T10:31:53;15.60;;;8.05;;
73675;SDS011;61975;48.660;10.164;2022-09-30T10:34:30;13.60;;;7.40;;
73675;SDS011;61975;48.660;10.164;2022-09-30T10:37:00;14.73;;;7.15;;
73675;SDS011;61975;48.660;10.164;2022-09-30T10:39:34;14.25;;;7.55;;
73675;SDS011;61975;48.660;10.164;2022-09-30T10:44:31;15.43;;;8.60;;
73675;SDS011;61975;48.660;10.164;2022-09-30T10:47:07;15.27;;;7.97;;
73675;SDS011;61975;48.660;10.164;2022-09-30T10:49:35;14.30;;;7.55;;
73675;SDS011;61975;48.660;10.164;2022-09-30T10:52:05;13.88;;;7.25;;
73675;SDS011;61975;48.660;10.164;2022-09-30T10:54:54;14.13;;;7.80;;
73675;SDS011;61975;48.660;10.164;2022-09-30T10:57:27;13.60;;;7.60;;
73675;SDS011;61975;48.660;10.164;2022-09-30T11:05:14;12.35;;;6.53;;
73675;SDS011;61975;48.660;10.164;2022-09-30T11:15:32;12.98;;;7.57;;
73675;SDS011;61975;48.660;10.164;2022-09-30T11:18:15;13.57;;;7.65;;
73675;SDS011;61975;48.660;10.164;2022-09-30T11:20:51;13.48;;;7.68;;
73675;SDS011;61975;48.660;10.164;2022-09-30T11:23:33;13.07;;;7.40;;
73675;SDS011;61975;48.660;10.164;2022-09-30T11:31:30;14.60;;;7.70;;
73675;SDS011;61975;48.660;10.164;2022-09-30T11:40:30;15.20;;;8.10;;
73675;SDS011;61975;48.660;10.164;2022-09-30T11:51:27;12.52;;;6.95;;
73675;SDS011;61975;48.660;10.164;2022-09-30T11:56:53;12.52;;;7.55;;
73675;SDS011;61975;48.660;10.164;2022-09-30T11:59:23;13.00;;;7.70;;
73675;SDS011;61975;48.660;10.164;2022-09-30T12:01:53;13.55;;;7.60;;
73675;SDS011;61975;48.660;10.164;2022-09-30T12:04:26;12.95;;;8.15;;
73675;SDS011;61975;48.660;10.164;2022-09-30T12:07:10;13.33;;;8.30;;
73675;SDS011;61975;48.660;10.164;2022-09-30T12:09:52;15.52;;;9.10;;
73675;SDS011;61975;48.660;10.164;2022-09-30T12:12:24;15.63;;;9.07;;
73675;SDS011;61975;48.660;10.164;2022-09-30T12:14:50;13.77;;;8.57;;
73675;SDS011;61975;48.660;10.164;2022-09-30T12:20:09;14.77;;;8.65;;
73675;SDS011;61975;48.660;10.164;2022-09-30T12:22:40;15.75;;;9.77;;
73675;SDS011;61975;48.660;10.164;2022-09-30T12:25:18;16.57;;;9.67;;
73675;SDS011;61975;48.660;10.164;2022-09-30T12:28:07;17.80;;;9.77;;
73675;SDS011;61975;48.660;10.164;2022-09-30T12:31:15;17.80;;;10.80;;
73675;SDS011;61975;48.660;10.164;2022-09-30T12:33:48;18.17;;;9.95;;
73675;SDS011;61975;48.660;10.164;2022-09-30T12:39:01;16.67;;;9.80;;
73675;SDS011;61975;48.660;10.164;2022-09-30T12:47:27;14.73;;;8.95;;
73675;SDS011;61975;48.660;10.164;2022-09-30T12:49:55;14.02;;;8.40;;
73675;SDS011;61975;48.660;10.164;2022-09-30T12:52:24;16.13;;;9.93;;
73675;SDS011;61975;48.660;10.164;2022-09-30T12:54:56;15.82;;;9.27;;
73675;SDS011;61975;48.660;10.164;2022-09-30T12:57:27;15.68;;;9.68;;
73675;SDS011;61975;48.660;10.164;2022-09-30T13:00:06;14.85;;;8.65;;
73675;SDS011;61975;48.660;10.164;2022-09-30T13:02:40;12.45;;;7.88;;
73675;SDS011;61975;48.660;10.164;2022-09-30T13:10:30;12.95;;;7.93;;
73675;SDS011;61975;48.660;10.164;2022-09-30T13:15:50;12.13;;;7.05;;
73675;SDS011;61975;48.660;10.164;2022-09-30T13:20:55;12.18;;;7.47;;
73675;SDS011;61975;48.660;10.164;2022-09-30T13:24:05;11.85;;;7.03;;
73675;SDS011;61975;48.660;10.164;2022-09-30T13:29:35;11.82;;;7.10;;
73675;SDS011;61975;48.660;10.164;2022-09-30T13:34:11;12.20;;;6.53;;
73675;SDS011;61975;48.660;10.164;2022-09-30T13:44:23;9.90;;;6.27;;
73675;SDS011;61975;48.660;10.164;2022-09-30T13:46:58;8.45;;;5.68;;
73675;SDS011;61975;48.660;10.164;2022-09-30T13:49:37;9.03;;;5.97;;
73675;SDS011;61975;48.660;10.164;2022-09-30T13:52:08;10.30;;;6.75;;
73675;SDS011;61975;48.660;10.164;2022-09-30T13:54:55;9.90;;;6.40;;
73675;SDS011;61975;48.660;10.164;2022-09-30T13:57:26;9.50;;;5.80;;
73675;SDS011;61975;48.660;10.164;2022-09-30T14:00:06;10.13;;;6.00;;
73675;SDS011;61975;48.660;10.164;2022-09-30T14:13:56;8.13;;;5.53;;
73675;SDS011;61975;48.660;10.164;2022-09-30T14:21:43;8.77;;;6.20;;
73675;SDS011;61975;48.660;10.164;2022-09-30T14:24:14;8.50;;;6.67;;
73675;SDS011;61975;48.660;10.164;2022-09-30T14:31:48;6.97;;;6.28;;
73675;SDS011;61975;48.660;10.164;2022-09-30T14:34:14;8.13;;;6.30;;
73675;SDS011;61975;48.660;10.164;2022-09-30T14:36:42;7.65;;;6.70;;
73675;SDS011;61975;48.660;10.164;2022-09-30T14:39:10;8.52;;;6.38;;
73675;SDS011;61975;48.660;10.164;2022-09-30T14:41:45;9.30;;;6.87;;
73675;SDS011;61975;48.660;10.164;2022-09-30T14:44:17;7.70;;;6.43;;
73675;SDS011;61975;48.660;10.164;2022-09-30T14:46:44;7.55;;;6.15;;
73675;SDS011;61975;48.660;10.164;2022-09-30T14:49:13;8.80;;;6.30;;
73675;SDS011;61975;48.660;10.164;2022-09-30T14:51:41;7.82;;;6.07;;
73675;SDS011;61975;48.660;10.164;2022-09-30T14:54:23;8.13;;;6.03;;
73675;SDS011;61975;48.660;10.164;2022-09-30T14:56:53;7.10;;;5.57;;
73675;SDS011;61975;48.660;10.164;2022-09-30T14:59:24;7.00;;;5.50;;
73675;SDS011;61975;48.660;10.164;2022-09-30T15:02:01;5.72;;;4.85;;
73675;SDS011;61975;48.660;10.164;2022-09-30T15:04:32;6.50;;;5.00;;
73675;SDS011;61975;48.660;10.164;2022-09-30T15:07:00;7.00;;;5.40;;
73675;SDS011;61975;48.660;10.164;2022-09-30T15:09:42;6.90;;;5.47;;
73675;SDS011;61975;48.660;10.164;2022-09-30T15:14:45;9.10;;;6.63;;
73675;SDS011;61975;48.660;10.164;2022-09-30T15:17:37;7.78;;;6.28;;
73675;SDS011;61975;48.660;10.164;2022-09-30T15:23:02;7.03;;;6.18;;
73675;SDS011;61975;48.660;10.164;2022-09-30T15:25:39;6.65;;;5.90;;
73675;SDS011;61975;48.660;10.164;2022-09-30T15:28:04;11.70;;;7.10;;
73675;SDS011;61975;48.660;10.164;2022-09-30T15:30:32;9.25;;;6.75;;
73675;SDS011;61975;48.660;10.164;2022-09-30T15:32:59;7.80;;;6.50;;
73675;SDS011;61975;48.660;10.164;2022-09-30T15:35:26;8.60;;;7.70;;
73675;SDS011;61975;48.660;10.164;2022-09-30T15:37:53;9.23;;;7.43;;
73675;SDS011;61975;48.660;10.164;2022-09-30T15:40:31;8.75;;;7.75;;
73675;SDS011;61975;48.660;10.164;2022-09-30T15:43:13;8.95;;;7.90;;
73675;SDS011;61975;48.660;10.164;2022-09-30T15:45:55;10.50;;;8.50;;
73675;SDS011;61975;48.660;10.164;2022-09-30T15:50:51;10.15;;;8.18;;
73675;SDS011;61975;48.660;10.164;2022-09-30T15:55:55;9.82;;;8.77;;
73675;SDS011;61975;48.660;10.164;2022-09-30T16:03:53;9.95;;;8.80;;
73675;SDS011;61975;48.660;10.164;2022-09-30T16:06:35;9.75;;;8.75;;
73675;SDS011;61975;48.660;10.164;2022-09-30T16:09:17;10.55;;;9.38;;
73675;SDS011;61975;48.660;10.164;2022-09-30T16:14:25;10.77;;;8.85;;
73675;SDS011;61975;48.660;10.164;2022-09-30T16:16:54;9.63;;;8.63;;
73675;SDS011;61975;48.660;10.164;2022-09-30T16:19:23;10.35;;;8.50;;
73675;SDS011;61975;48.660;10.164;2022-09-30T16:21:50;10.00;;;8.65;;
73675;SDS011;61975;48.660;10.164;2022-09-30T16:26:53;10.02;;;8.65;;
73675;SDS011;61975;48.660;10.164;2022-09-30T16:29:20;10.45;;;8.73;;
73675;SDS011;61975;48.660;10.164;2022-09-30T16:31:47;11.35;;;9.00;;
73675;SDS011;61975;48.660;10.164;2022-09-30T16:34:21;10.37;;;8.70;;
73675;SDS011;61975;48.660;10.164;2022-09-30T16:36:49;12.82;;;9.38;;
73675;SDS011;61975;48.660;10.164;2022-09-30T16:39:16;12.27;;;8.77;;
73675;SDS011;61975;48.660;10.164;2022-09-30T16:41:42;11.80;;;8.80;;
73675;SDS011;61975;48.660;10.164;2022-09-30T16:44:08;12.10;;;9.32;;
73675;SDS011;61975;48.660;10.164;2022-09-30T16:46:34;11.18;;;8.90;;
73675;SDS011;61975;48.660;10.164;2022-09-30T16:49:04;11.73;;;9.43;;
73675;SDS011;61975;48.660;10.164;2022-09-30T16:51:37;12.68;;;9.50;;
73675;SDS011;61975;48.660;10.164;2022-09-30T16:54:03;13.43;;;10.20;;
73675;SDS011;61975;48.660;10.164;2022-09-30T16:56:28;14.70;;;10.00;;
73675;SDS011;61975;48.660;10.164;2022-09-30T16:58:54;14.23;;;9.23;;
73675;SDS011;61975;48.660;10.164;2022-09-30T17:01:20;13.90;;;9.70;;
73675;SDS011;61975;48.660;10.164;2022-09-30T17:03:47;12.80;;;8.13;;
73675;SDS011;61975;48.660;10.164;2022-09-30T17:06:13;14.07;;;8.80;;
73675;SDS011;61975;48.660;10.164;2022-09-30T17:08:42;18.30;;;12.63;;
73675;SDS011;61975;48.660;10.164;2022-09-30T17:11:08;24.92;;;16.02;;
73675;SDS011;61975;48.660;10.164;2022-09-30T17:13:35;19.83;;;12.80;;
73675;SDS011;61975;48.660;10.164;2022-09-30T17:16:00;14.93;;;8.87;;
73675;SDS011;61975;48.660;10.164;2022-09-30T17:18:26;13.87;;;8.10;;
73675;SDS011;61975;48.660;10.164;2022-09-30T17:20:51;12.50;;;6.93;;
73675;SDS011;61975;48.660;10.164;2022-09-30T17:23:26;13.13;;;7.50;;
73675;SDS011;61975;48.660;10.164;2022-09-30T17:25:52;12.67;;;7.00;;
73675;SDS011;61975;48.660;10.164;2022-09-30T17:28:21;13.13;;;7.47;;
73675;SDS011;61975;48.660;10.164;2022-09-30T17:30:47;12.97;;;7.10;;
73675;SDS011;61975;48.660;10.164;2022-09-30T17:33:14;14.23;;;7.45;;
73675;SDS011;61975;48.660;10.164;2022-09-30T17:35:42;11.65;;;7.05;;
73675;SDS011;61975;48.660;10.164;2022-09-30T17:38:08;13.90;;;7.40;;
73675;SDS011;61975;48.660;10.164;2022-09-30T17:40:38;12.70;;;7.28;;
73675;SDS011;61975;48.660;10.164;2022-09-30T17:43:22;13.20;;;7.57;;
73675;SDS011;61975;48.660;10.164;2022-09-30T17:45:49;14.03;;;7.53;;
73675;SDS011;61975;48.660;10.164;2022-09-30T17:48:16;13.35;;;7.55;;
73675;SDS011;61975;48.660;10.164;2022-09-30T17:50:43;13.80;;;7.57;;
73675;SDS011;61975;48.660;10.164;2022-09-30T17:53:12;12.45;;;7.10;;
73675;SDS011;61975;48.660;10.164;2022-09-30T17:55:40;13.60;;;7.20;;
73675;SDS011;61975;48.660;10.164;2022-09-30T17:58:07;14.07;;;7.35;;
73675;SDS011;61975;48.660;10.164;2022-09-30T18:00:33;13.02;;;7.18;;
73675;SDS011;61975;48.660;10.164;2022-09-30T18:03:00;12.77;;;7.07;;
73675;SDS011;61975;48.660;10.164;2022-09-30T18:05:26;12.85;;;7.07;;
73675;SDS011;61975;48.660;10.164;2022-09-30T18:07:52;13.03;;;6.93;;
73675;SDS011;61975;48.660;10.164;2022-09-30T18:10:18;13.30;;;7.15;;